Time;durP1;ratioP1;P1;durP2;ratioP2;P2;SDS_P1;SDS_P2;PMS_P1;PMS_P2;Temp;Humidity;BMP_temperature;BMP_pressure;BME280_temperature;BME280_humidity;BME280_pressure;Samples;Min_cycle;Max_cycle;Signal;HPM_P1;HPM_P2
2023/07/01 00:00:58;;;;;;;42.53;32.15;;;19.30;84.30;;;18.16;100.00;95514.28;5016699;28;20049;-66
2023/07/01 00:03:24;;;;;;;40.45;32.08;;;19.30;84.40;;;18.16;100.00;95506.31;5020892;28;20533;-65
2023/07/01 00:05:50;;;;;;;41.65;32.80;;;19.30;84.30;;;18.17;100.00;95507.09;5037128;28;20047;-65
2023/07/01 00:08:16;;;;;;;44.05;32.55;;;19.30;84.40;;;18.17;100.00;95497.25;5007453;28;20029;-66
2023/07/01 00:10:42;;;;;;;40.78;31.35;;;19.30;84.50;;;18.17;100.00;95502.59;5014780;28;20523;-66
2023/07/01 00:13:07;;;;;;;40.22;30.95;;;19.20;84.50;;;18.14;100.00;95500.44;5037198;28;20038;-66
2023/07/01 00:15:33;;;;;;;44.10;32.35;;;19.30;84.50;;;18.14;100.00;95499.63;5001118;28;20040;-65
2023/07/01 00:17:59;;;;;;;43.75;32.30;;;19.20;84.40;;;18.14;100.00;95507.63;5015996;28;20048;-65
2023/07/01 00:20:26;;;;;;;38.50;31.63;;;19.30;84.30;;;18.13;100.00;95509.47;5007368;28;20411;-66
2023/07/01 00:22:53;;;;;;;42.58;32.13;;;19.30;84.10;;;18.12;100.00;95510.53;5020212;28;20037;-65
2023/07/01 00:25:19;;;;;;;37.60;29.42;;;19.30;84.20;;;18.12;100.00;95504.41;5015336;28;20631;-66
2023/07/01 00:27:44;;;;;;;41.13;31.27;;;19.20;84.30;;;18.10;100.00;95501.97;5035773;28;20041;-66
2023/07/01 00:30:11;;;;;;;39.47;31.20;;;19.20;84.20;;;18.08;100.00;95504.06;5019329;28;20436;-66
2023/07/01 00:32:37;;;;;;;38.13;29.33;;;19.20;84.10;;;18.06;100.00;95491.00;5021660;28;20029;-66
2023/07/01 00:35:02;;;;;;;41.00;30.15;;;19.10;84.00;;;18.06;100.00;95500.84;5044033;28;20103;-65
2023/07/01 00:37:30;;;;;;;41.40;30.38;;;19.20;84.20;;;18.05;100.00;95494.72;5023963;28;20053;-66
2023/07/01 00:39:56;;;;;;;35.33;29.20;;;19.10;83.90;;;18.03;100.00;95501.38;5017866;28;20132;-66
2023/07/01 00:42:21;;;;;;;41.10;29.63;;;19.10;83.90;;;18.04;100.00;95501.09;5015798;28;20475;-65
2023/07/01 00:44:47;;;;;;;40.45;29.90;;;19.10;84.00;;;18.02;100.00;95497.91;5035674;28;20041;-66
2023/07/01 00:47:13;;;;;;;37.10;28.70;;;19.10;83.80;;;18.02;100.00;95505.88;4997409;28;20072;-66
2023/07/01 00:49:39;;;;;;;37.83;29.02;;;19.10;83.80;;;18.02;100.00;95497.09;5011783;28;20060;-66
2023/07/01 00:52:06;;;;;;;38.38;29.98;;;19.10;84.00;;;18.01;100.00;95498.94;4997734;28;20053;-66
2023/07/01 00:54:32;;;;;;;40.88;31.05;;;19.10;83.90;;;18.03;100.00;95490.72;5017627;28;20904;-66
2023/07/01 00:56:59;;;;;;;40.15;30.83;;;19.20;84.00;;;18.02;100.00;95495.22;5012003;28;20026;-66
2023/07/01 00:59:26;;;;;;;39.00;31.25;;;19.10;83.80;;;18.02;100.00;95503.22;5003777;28;20044;-66
2023/07/01 01:01:52;;;;;;;45.65;31.92;;;19.10;84.10;;;18.02;100.00;95499.75;5017718;28;20037;-65
2023/07/01 01:04:29;;;;;;;40.55;31.75;;;19.10;84.10;;;18.00;100.00;95499.19;4997415;28;20040;-66
2023/07/01 01:07:02;;;;;;;42.92;31.35;;;19.00;84.10;;;17.99;100.00;95500.25;4999667;28;20044;-66
2023/07/01 01:09:50;;;;;;;43.60;32.75;;;19.00;84.10;;;17.92;100.00;95489.81;5014460;28;20045;-66
2023/07/01 01:12:16;;;;;;;40.72;31.80;;;18.90;84.10;;;17.89;100.00;95500.16;4999813;28;20029;-65
2023/07/01 01:14:42;;;;;;;45.58;33.00;;;18.80;84.40;;;17.91;100.00;95498.06;4979723;28;20524;-66
2023/07/01 01:17:12;;;;;;;41.28;32.50;;;18.90;84.40;;;17.89;100.00;95502.81;5012807;28;20029;-66
2023/07/01 01:19:47;;;;;;;44.45;33.08;;;18.90;84.30;;;17.88;100.00;95501.19;5016502;28;20481;-66
2023/07/01 01:22:21;;;;;;;45.25;32.50;;;18.90;84.20;;;17.84;100.00;95497.41;5005803;28;20079;-65
2023/07/01 01:24:54;;;;;;;39.33;30.95;;;18.80;84.30;;;17.80;100.00;95501.63;4997981;28;20021;-67
2023/07/01 01:27:24;;;;;;;42.13;32.17;;;18.70;84.60;;;17.79;100.00;95502.69;5015684;28;20159;-65
2023/07/01 01:29:50;;;;;;;39.65;29.95;;;18.80;84.40;;;17.78;100.00;95509.88;4995548;28;20082;-66
2023/07/01 01:32:16;;;;;;;42.20;31.52;;;18.80;84.40;;;17.70;100.00;95492.50;5013030;28;20100;-65
2023/07/01 01:34:41;;;;;;;42.10;31.58;;;18.70;84.60;;;17.74;100.00;95498.91;5016840;28;20028;-65
2023/07/01 01:37:19;;;;;;;50.08;35.72;;;18.80;84.60;;;17.72;100.00;95495.72;5002872;28;20041;-69
2023/07/01 01:39:46;;;;;;;44.13;33.45;;;18.80;84.30;;;17.71;100.00;95491.44;5005185;28;20033;-65
2023/07/01 01:42:27;;;;;;;47.10;34.30;;;18.80;84.50;;;17.70;100.00;95497.81;4999631;28;20116;-65
2023/07/01 01:44:53;;;;;;;46.95;34.70;;;18.70;84.60;;;17.66;100.00;95503.84;5001084;28;20507;-66
2023/07/01 01:47:21;;;;;;;49.03;34.78;;;18.60;85.10;;;17.65;100.00;95497.72;4998571;28;20021;-66
2023/07/01 01:49:52;;;;;;;47.53;33.20;;;18.60;85.00;;;17.64;100.00;95497.94;5004301;28;20109;-66
2023/07/01 01:52:18;;;;;;;48.13;35.47;;;18.60;85.10;;;17.62;100.00;95498.19;4998315;28;20052;-66
2023/07/01 01:54:45;;;;;;;46.58;32.78;;;18.70;84.90;;;17.62;100.00;95500.84;5005412;28;20493;-66
2023/07/01 01:57:11;;;;;;;46.42;34.00;;;18.70;84.90;;;17.61;100.00;95498.44;4994774;28;20127;-66
2023/07/01 01:59:36;;;;;;;44.17;34.13;;;18.60;84.90;;;17.61;100.00;95501.09;5003290;28;20504;-66
2023/07/01 02:02:02;;;;;;;47.45;34.35;;;18.60;84.70;;;17.59;100.00;95498.69;5020759;28;20450;-65
2023/07/01 02:04:28;;;;;;;45.00;33.33;;;18.70;84.90;;;17.62;100.00;95500.84;5005952;28;20509;-66
2023/07/01 02:06:54;;;;;;;44.00;33.92;;;18.70;84.80;;;17.61;100.00;95499.25;5039130;28;20124;-65
2023/07/01 02:09:19;;;;;;;46.67;32.38;;;18.70;84.60;;;17.59;100.00;95498.69;5027469;28;20061;-66
2023/07/01 02:11:45;;;;;;;46.58;33.75;;;18.70;84.50;;;17.58;100.00;95499.75;4992231;28;20057;-65
2023/07/01 02:14:11;;;;;;;47.05;31.42;;;18.70;84.50;;;17.55;100.00;95497.59;5021463;28;20088;-65
2023/07/01 02:16:37;;;;;;;40.88;31.02;;;18.60;85.00;;;17.54;100.00;95503.16;5017564;28;20462;-66
2023/07/01 02:19:05;;;;;;;40.95;30.85;;;18.60;84.90;;;17.54;100.00;95503.97;5000237;28;20406;-66
2023/07/01 02:21:32;;;;;;;40.03;29.13;;;18.70;84.70;;;17.54;100.00;95492.53;5032980;28;20037;-65
2023/07/01 02:23:58;;;;;;;38.42;26.88;;;18.60;84.40;;;17.50;100.00;95496.72;5017492;28;20037;-66
2023/07/01 02:26:24;;;;;;;34.63;25.30;;;18.60;84.40;;;17.47;100.00;95495.38;5007220;28;20025;-66
2023/07/01 02:28:50;;;;;;;34.95;24.38;;;18.60;84.30;;;17.47;100.00;95497.22;4998634;28;20040;-66
2023/07/01 02:31:18;;;;;;;33.92;24.23;;;18.60;84.30;;;17.46;100.00;95496.41;5012764;28;20041;-65
2023/07/01 02:33:44;;;;;;;32.90;22.40;;;18.60;84.10;;;17.43;100.00;95491.59;5040156;28;20497;-65
2023/07/01 02:36:10;;;;;;;31.00;22.58;;;18.60;84.10;;;17.41;100.00;95491.81;5010890;28;20589;-66
2023/07/01 02:38:36;;;;;;;31.90;21.65;;;18.50;84.00;;;17.41;100.00;95491.00;4996562;28;20029;-66
2023/07/01 02:41:02;;;;;;;27.55;19.88;;;18.50;83.90;;;17.39;100.00;95488.59;5024198;28;20115;-65
2023/07/01 02:43:27;;;;;;;26.00;18.77;;;18.60;83.80;;;17.39;100.00;95493.13;4999682;28;20086;-65
2023/07/01 02:45:53;;;;;;;23.65;18.95;;;18.50;83.40;;;17.36;100.00;95490.97;5016609;28;20090;-65
2023/07/01 02:48:19;;;;;;;24.77;18.42;;;18.50;83.20;;;17.36;100.00;95498.94;5041144;28;20037;-66
2023/07/01 02:50:45;;;;;;;24.13;17.13;;;18.40;83.60;;;17.33;100.00;95508.22;5015256;28;20084;-65
2023/07/01 02:53:10;;;;;;;25.95;17.70;;;18.40;83.40;;;17.30;100.00;95508.69;5008612;28;20045;-66
2023/07/01 02:55:36;;;;;;;23.70;16.98;;;18.40;83.20;;;17.26;100.00;95501.47;5016783;28;20562;-65
2023/07/01 02:58:02;;;;;;;25.67;17.08;;;18.30;83.40;;;17.24;100.00;95511.53;4993115;28;20059;-66
2023/07/01 03:00:28;;;;;;;26.05;16.60;;;18.30;83.70;;;17.20;100.00;95513.06;5002007;28;20025;-65
2023/07/01 03:02:54;;;;;;;24.27;16.02;;;18.30;83.20;;;17.18;100.00;95509.84;4994795;28;20141;-65
2023/07/01 03:05:21;;;;;;;19.35;14.70;;;18.30;83.30;;;17.15;100.00;95505.81;5002202;28;20043;-65
2023/07/01 03:07:51;;;;;;;22.35;15.25;;;18.20;83.00;;;17.14;100.00;95509.53;4991061;28;20048;-65
2023/07/01 03:10:17;;;;;;;19.85;14.38;;;18.20;83.20;;;17.11;100.00;95505.50;5033963;28;20029;-65
2023/07/01 03:12:43;;;;;;;21.55;14.98;;;18.20;83.20;;;17.09;100.00;95512.91;5022050;28;20084;-66
2023/07/01 03:15:09;;;;;;;20.02;14.65;;;18.20;83.30;;;17.07;100.00;95520.34;5012644;28;20128;-65
2023/07/01 03:17:35;;;;;;;19.38;12.95;;;18.20;83.20;;;17.03;100.00;95519.22;5018434;28;20044;-66
2023/07/01 03:20:00;;;;;;;15.75;12.93;;;18.10;83.10;;;17.02;100.00;95528.25;5038672;28;20398;-66
2023/07/01 03:22:26;;;;;;;13.30;11.63;;;18.10;82.80;;;17.00;100.00;95525.03;5037289;28;20059;-66
2023/07/01 03:24:52;;;;;;;14.70;11.48;;;18.10;82.90;;;16.97;100.00;95530.00;5038083;28;20064;-65
2023/07/01 03:27:18;;;;;;;16.48;10.65;;;18.00;82.70;;;16.94;100.00;95531.28;5011107;28;20033;-68
2023/07/01 03:29:44;;;;;;;14.00;11.05;;;18.00;82.50;;;16.93;100.00;95524.38;5010955;28;20456;-68
2023/07/01 03:32:09;;;;;;;15.85;11.60;;;18.00;82.40;;;16.89;100.00;95535.72;5014892;28;20533;-68
2023/07/01 03:34:37;;;;;;;15.77;12.48;;;17.80;82.80;;;16.87;100.00;95533.31;5017764;28;20048;-65
2023/07/01 03:37:03;;;;;;;15.88;12.85;;;17.80;83.20;;;16.78;100.00;95540.09;5020993;28;20033;-65
2023/07/01 03:39:29;;;;;;;17.20;13.43;;;17.60;84.10;;;16.73;100.00;95539.97;5012243;28;20052;-65
2023/07/01 03:41:55;;;;;;;18.10;13.63;;;17.60;84.00;;;16.70;100.00;95546.56;4993371;28;20056;-65
2023/07/01 03:44:21;;;;;;;15.07;12.73;;;17.60;83.90;;;16.66;100.00;95536.66;5017718;28;20453;-65
2023/07/01 03:46:46;;;;;;;15.75;11.85;;;17.70;83.50;;;16.63;100.00;95534.47;5034204;28;20034;-64
2023/07/01 03:49:14;;;;;;;15.13;12.82;;;17.70;83.30;;;16.55;100.00;95535.69;5013823;28;20501;-66
2023/07/01 03:51:41;;;;;;;17.48;12.48;;;17.50;83.70;;;16.56;100.00;95539.94;5020953;28;20029;-65
2023/07/01 03:54:07;;;;;;;14.98;11.07;;;17.60;83.50;;;16.49;100.00;95540.09;4997949;28;20379;-65
2023/07/01 03:56:33;;;;;;;14.88;11.57;;;17.40;84.10;;;16.45;100.00;95538.97;5004795;28;20071;-65
2023/07/01 03:58:59;;;;;;;15.55;12.25;;;17.30;83.80;;;16.39;100.00;95545.22;5014115;28;20544;-65
2023/07/01 04:01:26;;;;;;;15.00;11.38;;;17.30;84.50;;;16.36;100.00;95542.25;4998086;28;20116;-64
2023/07/01 04:03:53;;;;;;;16.63;12.15;;;17.40;84.40;;;16.33;100.00;95540.88;5002422;28;20121;-66
2023/07/01 04:06:19;;;;;;;13.98;11.80;;;17.20;84.30;;;16.31;100.00;95544.81;5017611;28;20033;-65
2023/07/01 04:08:44;;;;;;;17.45;12.20;;;17.40;84.30;;;16.29;100.00;95545.03;5019090;28;20044;-65
2023/07/01 04:11:10;;;;;;;15.30;11.48;;;17.20;84.70;;;16.26;100.00;95539.41;5008198;28;20041;-65
2023/07/01 04:13:36;;;;;;;15.00;11.60;;;17.30;84.70;;;16.22;100.00;95539.06;5006128;28;20041;-66
2023/07/01 04:16:01;;;;;;;13.27;11.00;;;17.10;84.60;;;16.22;100.00;95534.56;5015537;28;20034;-65
2023/07/01 04:18:27;;;;;;;13.77;10.95;;;17.30;84.60;;;16.22;100.00;95534.56;5016881;28;20129;-66
2023/07/01 04:20:55;;;;;;;15.00;11.18;;;17.30;84.40;;;16.23;100.00;95530.06;5015355;28;20482;-65
2023/07/01 04:23:20;;;;;;;15.40;12.10;;;17.30;84.50;;;16.23;100.00;95535.38;5009716;28;20087;-64
2023/07/01 04:25:46;;;;;;;20.40;16.42;;;17.40;84.50;;;16.27;100.00;95539.16;5032936;28;20054;-65
2023/07/01 04:28:12;;;;;;;13.77;11.25;;;17.50;84.60;;;16.29;100.00;95542.38;5013907;28;20042;-65
2023/07/01 04:30:38;;;;;;;16.08;13.57;;;17.60;84.00;;;16.30;100.00;95536.06;5035996;28;20473;-65
2023/07/01 04:33:03;;;;;;;14.85;11.65;;;17.60;84.20;;;16.35;100.00;95540.66;5015502;28;20061;-67
2023/07/01 04:35:29;;;;;;;14.00;10.88;;;17.60;83.90;;;16.35;100.00;95538.00;5019664;28;20486;-66
2023/07/01 04:37:55;;;;;;;18.08;15.98;;;17.60;83.90;;;16.36;100.00;95527.13;5041829;28;20571;-66
2023/07/01 04:40:21;;;;;;;17.58;15.00;;;17.60;83.90;;;16.38;100.00;95538.31;4993977;28;20052;-63
2023/07/01 04:42:49;;;;;;;19.85;16.52;;;17.60;84.00;;;16.40;100.00;95530.91;5015690;28;20049;-62
2023/07/01 04:45:15;;;;;;;16.80;12.52;;;17.70;83.80;;;16.43;100.00;95538.41;5001475;28;20068;-64
2023/07/01 04:47:40;;;;;;;20.38;14.18;;;17.70;83.50;;;16.45;100.00;95533.66;5015401;28;20025;-63
2023/07/01 04:50:07;;;;;;;20.70;16.30;;;17.70;83.50;;;16.47;100.00;95536.88;5031632;28;20037;-63
2023/07/01 04:52:34;;;;;;;16.35;14.05;;;17.80;83.20;;;16.52;100.00;95538.78;5035547;28;20040;-63
2023/07/01 04:55:02;;;;;;;14.00;10.30;;;17.80;83.20;;;16.54;100.00;95537.53;5016891;28;20064;-63
2023/07/01 04:57:27;;;;;;;16.23;13.00;;;17.80;82.80;;;16.54;100.00;95547.34;5032324;28;20049;-62
2023/07/01 04:59:53;;;;;;;25.63;22.92;;;17.80;83.10;;;16.54;100.00;95550.81;5018753;28;20057;-64
2023/07/01 05:02:19;;;;;;;14.13;11.63;;;17.80;83.30;;;16.57;100.00;95551.38;5036835;28;20049;-63
2023/07/01 05:04:45;;;;;;;12.13;10.45;;;17.90;83.00;;;16.56;100.00;95553.22;5014718;28;20108;-63
2023/07/01 05:07:10;;;;;;;11.27;10.07;;;17.80;82.50;;;16.56;100.00;95563.03;5036888;28;20029;-64
2023/07/01 05:09:36;;;;;;;11.10;9.90;;;17.80;82.80;;;16.56;100.00;95560.38;5036416;28;20033;-63
2023/07/01 05:12:02;;;;;;;11.95;9.77;;;17.90;82.80;;;16.57;100.00;95556.69;5025271;28;20152;-63
2023/07/01 05:14:28;;;;;;;11.18;9.98;;;17.90;82.80;;;16.59;100.00;95559.91;5020054;28;20044;-64
2023/07/01 05:16:54;;;;;;;11.73;9.88;;;18.00;82.60;;;16.62;100.00;95562.06;5018562;28;20026;-64
2023/07/01 05:19:20;;;;;;;13.20;9.65;;;17.90;82.40;;;16.62;100.00;95565.53;5001267;28;20158;-63
2023/07/01 05:21:52;;;;;;;14.93;10.55;;;17.90;82.50;;;16.64;100.00;95562.63;5034847;28;20426;-63
2023/07/01 05:24:18;;;;;;;12.00;9.85;;;18.00;82.60;;;16.68;100.00;95563.78;5016698;28;20029;-63
2023/07/01 05:26:48;;;;;;;15.13;12.80;;;18.00;82.50;;;16.68;100.00;95564.59;5016928;28;20065;-63
2023/07/01 05:29:14;;;;;;;14.35;11.73;;;18.00;82.50;;;16.68;100.00;95564.59;5001058;28;20159;-63
2023/07/01 05:31:40;;;;;;;12.75;10.88;;;18.10;82.60;;;16.73;100.00;95566.53;5021823;28;20488;-64
2023/07/01 05:34:06;;;;;;;12.77;10.43;;;18.10;82.60;;;16.72;100.00;95565.72;5041162;28;20072;-64
2023/07/01 05:36:31;;;;;;;11.73;10.20;;;18.00;82.50;;;16.73;100.00;95569.19;5003743;28;20156;-64
2023/07/01 05:38:57;;;;;;;14.95;11.48;;;18.10;82.50;;;16.75;100.00;95573.25;5035440;28;20465;-64
2023/07/01 05:41:23;;;;;;;12.55;10.50;;;18.10;82.90;;;16.77;100.00;95573.00;5018010;28;20022;-63
2023/07/01 05:43:49;;;;;;;12.63;10.68;;;18.10;83.00;;;16.79;100.00;95576.22;5003064;28;20061;-64
2023/07/01 05:46:15;;;;;;;14.50;11.20;;;18.10;82.60;;;16.78;100.00;95570.09;4999362;28;20032;-64
2023/07/01 05:48:41;;;;;;;23.83;19.50;;;18.10;82.80;;;16.79;100.00;95570.91;5015753;28;20029;-64
2023/07/01 05:51:07;;;;;;;16.67;14.40;;;18.00;83.00;;;16.81;100.00;95579.44;5017979;28;20091;-64
2023/07/01 05:53:33;;;;;;;13.38;11.38;;;18.20;82.80;;;16.86;100.00;95579.50;5016861;28;20644;-63
2023/07/01 05:55:59;;;;;;;13.40;10.68;;;18.30;82.70;;;16.92;100.00;95575.88;5009422;28;20033;-64
2023/07/01 05:58:24;;;;;;;12.35;10.45;;;18.40;82.40;;;16.99;100.00;95571.25;5007470;28;20483;-63
2023/07/01 06:00:50;;;;;;;11.55;9.52;;;18.50;81.80;;;17.06;100.00;95571.88;5035746;28;20501;-63
2023/07/01 06:03:16;;;;;;;13.85;10.40;;;18.60;81.60;;;17.14;100.00;95573.31;5034656;28;20044;-65
2023/07/01 06:05:41;;;;;;;12.90;10.68;;;18.70;81.70;;;17.20;100.00;95575.00;5022825;28;20045;-63
2023/07/01 06:08:07;;;;;;;12.35;9.90;;;18.80;81.50;;;17.28;100.00;95576.44;5013364;28;20577;-63
2023/07/01 06:10:33;;;;;;;13.02;10.13;;;18.70;80.80;;;17.33;100.00;95579.19;5006495;28;20677;-66
2023/07/01 06:12:59;;;;;;;10.75;9.45;;;18.70;80.80;;;17.39;100.00;95580.84;5026333;28;20558;-67
2023/07/01 06:15:25;;;;;;;13.30;10.77;;;18.80;80.70;;;17.45;100.00;95577.25;5024275;28;20032;-67
2023/07/01 06:17:50;;;;;;;12.35;10.73;;;19.00;80.80;;;17.51;100.00;95584.22;5016487;28;20110;-67
2023/07/01 06:20:16;;;;;;;12.73;10.40;;;19.10;80.40;;;17.54;100.00;95583.75;5019321;28;20037;-68
2023/07/01 06:22:42;;;;;;;10.68;9.30;;;19.00;80.20;;;17.54;100.00;95582.94;5022253;28;20053;-68
2023/07/01 06:25:10;;;;;;;14.15;9.95;;;18.90;80.40;;;17.58;100.00;95587.50;5015062;28;20091;-65
2023/07/01 06:27:37;;;;;;;11.73;9.38;;;19.10;81.00;;;17.66;100.00;95583.66;5011962;28;20489;-68
2023/07/01 06:30:03;;;;;;;13.68;9.75;;;19.10;80.30;;;17.68;100.00;95584.22;4997814;28;20063;-68
2023/07/01 06:32:29;;;;;;;12.75;9.85;;;19.10;80.30;;;17.72;100.00;95580.81;5021664;28;20038;-68
2023/07/01 06:34:55;;;;;;;10.43;9.27;;;19.30;80.30;;;17.81;100.00;95577.72;5015648;28;20029;-66
2023/07/01 06:37:21;;;;;;;10.90;8.85;;;19.40;80.70;;;17.92;100.00;95574.16;5012903;28;20041;-68
2023/07/01 06:39:47;;;;;;;14.82;8.90;;;19.60;80.10;;;18.05;100.00;95579.09;5041412;28;20052;-70
2023/07/01 06:42:13;;;;;;;9.98;8.50;;;19.80;79.40;;;18.13;100.00;95575.22;5019299;28;20077;-67
2023/07/01 06:44:39;;;;;;;10.30;8.40;;;19.70;78.40;;;18.15;100.00;95573.91;5020441;28;20057;-70
2023/07/01 06:47:05;;;;;;;10.02;7.90;;;19.70;78.30;;;18.26;100.00;95577.47;4996390;28;20128;-70
2023/07/01 06:49:32;;;;;;;8.65;7.57;;;19.90;78.70;;;18.33;100.00;95576.25;5012881;28;20036;-69
2023/07/01 06:51:57;;;;;;;8.98;7.50;;;20.00;77.80;;;18.42;100.00;95573.13;4994792;28;20041;-68
2023/07/01 06:54:23;;;;;;;12.25;7.47;;;20.10;77.00;;;18.49;100.00;95571.06;4994727;28;20154;-69
2023/07/01 06:56:49;;;;;;;8.57;7.50;;;20.10;76.40;;;18.58;100.00;95572.22;5033780;28;20108;-67
2023/07/01 06:59:15;;;;;;;8.52;7.13;;;20.30;76.10;;;18.65;100.00;95567.53;5014411;28;20071;-66
2023/07/01 07:01:40;;;;;;;10.65;7.05;;;20.30;76.30;;;18.77;100.00;95576.13;5017173;28;20022;-67
2023/07/01 07:04:06;;;;;;;8.68;6.65;;;20.60;75.90;;;18.87;100.00;95570.91;5043031;28;20469;-67
2023/07/01 07:06:32;;;;;;;8.63;6.63;;;20.70;75.80;;;18.98;100.00;95577.94;4996012;28;20103;-66
2023/07/01 07:08:58;;;;;;;11.13;6.20;;;20.80;74.80;;;19.02;100.00;95578.25;5016705;28;20502;-66
2023/07/01 07:11:24;;;;;;;10.05;6.53;;;20.70;73.70;;;19.08;100.00;95566.56;5007107;28;20117;-66
2023/07/01 07:13:50;;;;;;;11.10;6.43;;;20.90;73.60;;;19.14;100.00;95570.06;4996628;28;20041;-67
2023/07/01 07:16:15;;;;;;;8.45;6.10;;;20.90;73.50;;;19.23;100.00;95563.19;5014115;28;20025;-66
2023/07/01 07:18:41;;;;;;;8.88;6.35;;;21.10;74.40;;;19.35;100.00;95566.47;4995733;28;20046;-66
2023/07/01 07:21:07;;;;;;;9.05;6.43;;;21.20;74.30;;;19.43;100.00;95563.31;5032000;28;20113;-67
2023/07/01 07:23:33;;;;;;;7.55;5.88;;;21.40;72.70;;;19.53;100.00;95563.44;5008015;28;20113;-65
2023/07/01 07:25:58;;;;;;;9.57;6.35;;;21.40;71.30;;;19.63;100.00;95562.66;4998697;28;20110;-66
2023/07/01 07:28:24;;;;;;;9.30;4.65;;;21.60;70.90;;;19.72;100.00;95566.47;5033843;28;20536;-66
2023/07/01 07:30:50;;;;;;;7.28;5.40;;;21.80;71.40;;;19.84;100.00;95569.72;5012649;28;20025;-66
2023/07/01 07:33:15;;;;;;;9.52;5.35;;;21.90;71.10;;;19.93;100.00;95556.69;5011618;28;20519;-66
2023/07/01 07:35:41;;;;;;;6.80;5.32;;;21.80;69.00;;;20.01;100.00;95558.84;5019061;28;20525;-65
2023/07/01 07:38:07;;;;;;;7.88;5.22;;;22.00;69.00;;;20.09;100.00;95561.00;5035830;28;20452;-66
2023/07/01 07:40:33;;;;;;;9.45;6.25;;;22.00;68.90;;;20.14;100.00;95553.03;5039553;28;20025;-65
2023/07/01 07:42:58;;;;;;;8.20;5.47;;;22.10;68.20;;;20.23;100.00;95555.19;5015318;28;20029;-65
2023/07/01 07:45:24;;;;;;;6.35;4.97;;;22.20;68.00;;;20.35;100.00;95555.75;5035440;28;20485;-65
2023/07/01 07:47:50;;;;;;;7.78;5.00;;;22.30;66.90;;;20.43;100.00;95563.28;4994144;28;20108;-65
2023/07/01 07:50:16;;;;;;;5.82;4.28;;;22.40;67.30;;;20.49;100.00;95564.91;5009252;28;20117;-65
2023/07/01 07:52:41;;;;;;;8.10;5.03;;;22.50;66.90;;;20.60;100.00;95561.19;4996817;28;20496;-65
2023/07/01 07:55:07;;;;;;;7.40;4.47;;;22.60;66.40;;;20.72;99.85;95563.59;5033888;28;20048;-65
2023/07/01 07:57:33;;;;;;;6.88;4.82;;;22.80;65.80;;;20.83;97.69;95553.72;5036049;28;20524;-65
2023/07/01 07:59:59;;;;;;;9.30;4.47;;;22.90;63.90;;;20.93;95.72;95551.84;4998294;28;20515;-65
2023/07/01 08:02:25;;;;;;;7.38;4.05;;;23.00;63.30;;;21.01;95.47;95555.84;5015052;28;20032;-65
2023/07/01 08:04:51;;;;;;;5.78;3.78;;;23.10;64.30;;;21.09;93.38;95548.13;5017674;28;20037;-66
2023/07/01 08:07:16;;;;;;;5.95;3.53;;;23.10;62.20;;;21.17;92.71;95551.31;5021080;28;20053;-65
2023/07/01 08:09:42;;;;;;;5.10;4.10;;;23.20;62.40;;;21.20;91.05;95559.59;5022133;28;20021;-66
2023/07/01 08:12:08;;;;;;;9.07;3.70;;;23.10;61.40;;;21.24;89.59;95557.22;5022516;28;20022;-65
2023/07/01 08:14:34;;;;;;;7.43;4.07;;;23.10;61.00;;;21.32;89.08;95552.13;5017937;28;20518;-65
2023/07/01 08:17:00;;;;;;;6.15;4.00;;;23.30;60.80;;;21.36;86.83;95550.50;5040235;28;20037;-64
2023/07/01 08:19:26;;;;;;;5.95;4.05;;;23.40;59.90;;;21.47;87.23;95547.81;5016097;28;20061;-64
2023/07/01 08:21:52;;;;;;;6.97;4.40;;;23.60;60.50;;;21.58;85.60;95541.38;5019855;28;20465;-64
2023/07/01 08:24:18;;;;;;;6.65;4.78;;;23.90;59.00;;;21.70;85.33;95536.50;4992032;28;20659;-64
2023/07/01 08:26:43;;;;;;;5.95;3.80;;;24.10;59.00;;;21.87;84.11;95528.16;5022435;28;20033;-68
2023/07/01 08:29:09;;;;;;;5.45;3.78;;;24.20;57.50;;;22.04;82.69;95535.88;5009390;28;20501;-66
2023/07/01 08:31:36;;;;;;;4.82;3.67;;;24.50;56.30;;;22.12;79.77;95540.66;5018530;28;20052;-63
2023/07/01 08:34:02;;;;;;;5.40;3.38;;;24.30;54.40;;;22.28;80.68;95531.50;5029156;28;20029;-66
2023/07/01 08:36:28;;;;;;;4.55;3.38;;;24.90;56.00;;;22.49;80.32;95532.16;4998924;28;20121;-65
2023/07/01 08:38:54;;;;;;;6.28;3.70;;;25.00;56.00;;;22.62;79.57;95520.81;5008509;28;20140;-65
2023/07/01 08:41:21;;;;;;;5.53;3.22;;;25.00;55.70;;;22.80;79.32;95530.88;5040920;28;20049;-67
2023/07/01 08:43:47;;;;;;;4.25;3.25;;;25.30;54.60;;;22.96;75.95;95518.19;5016430;28;20040;-69
2023/07/01 08:46:15;;;;;;;5.22;3.45;;;25.60;51.10;;;23.16;75.23;95519.88;5001387;28;20053;-66
2023/07/01 08:48:41;;;;;;;5.28;2.60;;;25.80;51.40;;;23.36;74.81;95521.59;4998845;28;20052;-67
2023/07/01 08:51:30;;;;;;;4.53;3.00;;;26.10;51.90;;;23.64;69.76;95501.97;4996961;28;20036;-68
2023/07/01 08:53:59;;;;;;;4.28;2.80;;;26.40;50.50;;;23.79;71.55;95506.38;4997443;28;20040;-68
2023/07/01 08:56:24;;;;;;;6.88;2.78;;;26.50;50.20;;;23.91;70.02;95505.97;5013919;28;20029;-66
2023/07/01 08:58:50;;;;;;;5.30;2.50;;;26.50;47.70;;;24.04;68.85;95497.22;4998659;28;20565;-67
2023/07/01 09:01:16;;;;;;;7.40;6.57;;;26.70;46.30;;;24.13;67.44;95503.53;5010725;28;20485;-66
2023/07/01 09:03:42;;;;;;;5.38;3.45;;;26.70;46.00;;;24.21;65.04;95499.38;5014884;28;20021;-67
2023/07/01 09:06:08;;;;;;;3.95;2.50;;;26.70;45.70;;;24.26;63.35;95494.75;5025878;28;20025;-67
2023/07/01 09:08:40;;;;;;;4.65;2.20;;;26.70;44.40;;;24.26;60.04;95470.56;5016854;28;20033;-67
2023/07/01 09:11:06;;;;;;;4.18;2.25;;;26.50;44.90;;;24.21;63.33;95489.44;4986414;28;20074;-67
2023/07/01 09:13:32;;;;;;;4.85;2.60;;;26.30;46.20;;;24.15;62.84;95487.91;5020823;28;20087;-68
2023/07/01 09:15:58;;;;;;;3.13;2.25;;;26.00;47.10;;;24.12;62.53;95483.13;5026118;28;20042;-68
2023/07/01 09:18:25;;;;;;;7.75;2.65;;;26.10;46.40;;;24.09;61.57;95483.69;4998601;28;20036;-67
2023/07/01 09:20:54;;;;;;;4.35;2.40;;;26.30;46.40;;;24.12;58.65;95462.41;5000869;28;20060;-69
2023/07/01 09:23:30;;;;;;;5.25;2.40;;;26.10;44.10;;;24.12;58.18;95459.72;5014144;28;20056;-67
2023/07/01 09:26:10;;;;;;;4.85;2.63;;;26.20;46.00;;;24.16;57.88;95457.25;5008069;28;20025;-67
2023/07/01 09:28:39;;;;;;;4.18;2.85;;;26.30;45.80;;;24.08;60.51;95471.34;5041606;28;20037;-67
2023/07/01 09:31:08;;;;;;;4.00;2.40;;;26.10;46.20;;;24.05;60.85;95475.44;4999045;28;20044;-70
2023/07/01 09:33:37;;;;;;;5.80;2.55;;;26.10;46.40;;;24.14;60.67;95475.56;5020192;28;20109;-68
2023/07/01 09:36:04;;;;;;;3.42;2.10;;;26.40;46.70;;;24.29;59.92;95464.63;4987903;28;20041;-69
2023/07/01 09:38:34;;;;;;;4.93;2.28;;;26.80;44.10;;;24.49;58.74;95470.81;4998044;28;20103;-68
2023/07/01 09:41:13;;;;;;;5.13;2.30;;;27.30;44.70;;;24.84;55.76;95435.25;5000476;28;20515;-70
2023/07/01 09:43:42;;;;;;;3.80;2.10;;;27.80;42.20;;;25.26;57.55;95452.31;5005638;28;20034;-69
2023/07/01 09:46:08;;;;;;;5.18;2.10;;;28.60;42.30;;;25.68;58.41;95459.34;4992775;28;20280;-69
2023/07/01 09:48:34;;;;;;;4.20;2.20;;;29.30;41.10;;;26.13;57.29;95443.31;5009379;28;20504;-70
2023/07/01 09:51:02;;;;;;;3.65;2.10;;;29.90;39.80;;;26.63;56.05;95441.38;5013368;28;20299;-68
2023/07/01 09:53:38;;;;;;;5.30;1.83;;;30.60;38.20;;;26.98;50.88;95415.41;4997684;28;20505;-69
2023/07/01 09:56:04;;;;;;;14.73;12.88;;;30.30;37.50;;;27.15;53.78;95437.09;4999484;28;20052;-70
2023/07/01 09:58:31;;;;;;;5.18;2.85;;;30.50;38.10;;;27.32;52.40;95425.59;5007761;28;20033;-67
2023/07/01 10:00:57;;;;;;;3.55;2.17;;;30.40;36.00;;;27.37;51.83;95422.75;5016467;28;20056;-70
2023/07/01 10:03:27;;;;;;;6.95;2.10;;;30.10;37.20;;;27.34;49.56;95396.38;5004866;28;20043;-69